sensor_id;sensor_type;location;lat;lon;timestamp;temperature;humidity
14873;DHT22;7528;48.576;19.122;2023-04-03T00:01:02;7.40;59.50
14873;DHT22;7528;48.576;19.122;2023-04-03T00:06:05;7.30;59.60
14873;DHT22;7528;48.576;19.122;2023-04-03T00:11:09;7.30;59.70
14873;DHT22;7528;48.576;19.122;2023-04-03T00:16:13;7.20;60.20
14873;DHT22;7528;48.576;19.122;2023-04-03T00:21:16;7.10;60.20
14873;DHT22;7528;48.576;19.122;2023-04-03T00:26:19;7.00;60.40
14873;DHT22;7528;48.576;19.122;2023-04-03T00:31:23;6.90;60.30
14873;DHT22;7528;48.576;19.122;2023-04-03T00:36:26;6.90;60.70
14873;DHT22;7528;48.576;19.122;2023-04-03T00:41:29;6.80;61.30
14873;DHT22;7528;48.576;19.122;2023-04-03T00:46:37;6.80;61.00
14873;DHT22;7528;48.576;19.122;2023-04-03T00:51:39;6.70;60.90
14873;DHT22;7528;48.576;19.122;2023-04-03T00:56:43;6.70;61.30
14873;DHT22;7528;48.576;19.122;2023-04-03T01:01:48;6.60;61.40
14873;DHT22;7528;48.576;19.122;2023-04-03T01:06:52;6.60;61.60
14873;DHT22;7528;48.576;19.122;2023-04-03T01:12:12;6.50;61.50
14873;DHT22;7528;48.576;19.122;2023-04-03T01:17:34;6.40;61.70
14873;DHT22;7528;48.576;19.122;2023-04-03T01:22:40;6.40;62.00
14873;DHT22;7528;48.576;19.122;2023-04-03T01:27:48;6.40;61.80
14873;DHT22;7528;48.576;19.122;2023-04-03T01:32:52;6.30;61.80
14873;DHT22;7528;48.576;19.122;2023-04-03T01:37:55;6.30;62.20
14873;DHT22;7528;48.576;19.122;2023-04-03T01:42:58;6.20;62.90
14873;DHT22;7528;48.576;19.122;2023-04-03T01:48:03;6.20;62.20
14873;DHT22;7528;48.576;19.122;2023-04-03T01:53:06;6.10;63.10
14873;DHT22;7528;48.576;19.122;2023-04-03T01:58:08;6.10;62.60
14873;DHT22;7528;48.576;19.122;2023-04-03T02:03:13;6.10;62.40
14873;DHT22;7528;48.576;19.122;2023-04-03T02:08:16;6.00;62.90
14873;DHT22;7528;48.576;19.122;2023-04-03T02:13:19;6.00;63.20
14873;DHT22;7528;48.576;19.122;2023-04-03T02:18:23;5.90;63.30
14873;DHT22;7528;48.576;19.122;2023-04-03T02:23:26;5.80;63.50
14873;DHT22;7528;48.576;19.122;2023-04-03T02:28:28;5.80;63.60
14873;DHT22;7528;48.576;19.122;2023-04-03T02:33:33;5.80;63.50
14873;DHT22;7528;48.576;19.122;2023-04-03T02:38:38;5.70;63.60
14873;DHT22;7528;48.576;19.122;2023-04-03T02:43:41;5.60;63.90
14873;DHT22;7528;48.576;19.122;2023-04-03T02:48:45;5.50;64.10
14873;DHT22;7528;48.576;19.122;2023-04-03T02:53:48;5.60;64.10
14873;DHT22;7528;48.576;19.122;2023-04-03T02:58:55;5.60;64.30
14873;DHT22;7528;48.576;19.122;2023-04-03T03:03:59;5.50;64.20
14873;DHT22;7528;48.576;19.122;2023-04-03T03:09:02;5.50;64.40
14873;DHT22;7528;48.576;19.122;2023-04-03T03:14:06;5.40;64.10
14873;DHT22;7528;48.576;19.122;2023-04-03T03:19:11;5.40;64.40
14873;DHT22;7528;48.576;19.122;2023-04-03T03:24:16;5.30;64.30
14873;DHT22;7528;48.576;19.122;2023-04-03T03:29:18;5.30;64.70
14873;DHT22;7528;48.576;19.122;2023-04-03T03:34:23;5.20;64.80
14873;DHT22;7528;48.576;19.122;2023-04-03T03:39:25;5.20;64.80
14873;DHT22;7528;48.576;19.122;2023-04-03T03:44:28;5.20;64.80
14873;DHT22;7528;48.576;19.122;2023-04-03T03:49:32;5.10;64.70
14873;DHT22;7528;48.576;19.122;2023-04-03T03:54:36;5.10;65.00
14873;DHT22;7528;48.576;19.122;2023-04-03T03:59:39;5.00;65.20
14873;DHT22;7528;48.576;19.122;2023-04-03T04:04:45;5.00;65.60
14873;DHT22;7528;48.576;19.122;2023-04-03T04:09:48;5.00;65.50
14873;DHT22;7528;48.576;19.122;2023-04-03T04:14:53;5.00;65.60
14873;DHT22;7528;48.576;19.122;2023-04-03T04:19:58;5.00;65.30
14873;DHT22;7528;48.576;19.122;2023-04-03T04:25:01;5.00;65.40
14873;DHT22;7528;48.576;19.122;2023-04-03T04:30:05;5.00;65.40
14873;DHT22;7528;48.576;19.122;2023-04-03T04:35:10;5.00;65.50
14873;DHT22;7528;48.576;19.122;2023-04-03T04:40:18;5.00;65.50
14873;DHT22;7528;48.576;19.122;2023-04-03T04:45:21;5.00;65.90
14873;DHT22;7528;48.576;19.122;2023-04-03T04:50:26;4.80;66.20
14873;DHT22;7528;48.576;19.122;2023-04-03T04:55:30;4.90;66.70
14873;DHT22;7528;48.576;19.122;2023-04-03T05:00:33;5.00;66.50
14873;DHT22;7528;48.576;19.122;2023-04-03T05:05:37;5.00;66.70
14873;DHT22;7528;48.576;19.122;2023-04-03T05:10:41;5.20;66.00
14873;DHT22;7528;48.576;19.122;2023-04-03T05:15:47;5.30;65.50
14873;DHT22;7528;48.576;19.122;2023-04-03T05:20:51;5.40;65.40
14873;DHT22;7528;48.576;19.122;2023-04-03T05:25:55;5.40;66.30
14873;DHT22;7528;48.576;19.122;2023-04-03T05:30:58;5.40;67.00
14873;DHT22;7528;48.576;19.122;2023-04-03T05:36:11;5.50;66.90
14873;DHT22;7528;48.576;19.122;2023-04-03T05:41:18;5.60;66.40
14873;DHT22;7528;48.576;19.122;2023-04-03T05:46:22;5.70;67.00
14873;DHT22;7528;48.576;19.122;2023-04-03T05:51:32;5.80;63.80
14873;DHT22;7528;48.576;19.122;2023-04-03T05:56:57;6.00;58.20
14873;DHT22;7528;48.576;19.122;2023-04-03T06:02:01;6.30;55.70
14873;DHT22;7528;48.576;19.122;2023-04-03T06:07:06;6.50;55.40
14873;DHT22;7528;48.576;19.122;2023-04-03T06:12:09;6.70;54.20
14873;DHT22;7528;48.576;19.122;2023-04-03T06:17:12;6.90;53.30
14873;DHT22;7528;48.576;19.122;2023-04-03T06:22:17;7.00;52.30
14873;DHT22;7528;48.576;19.122;2023-04-03T06:27:21;7.20;52.00
14873;DHT22;7528;48.576;19.122;2023-04-03T06:32:23;7.30;50.90
14873;DHT22;7528;48.576;19.122;2023-04-03T06:37:27;7.40;50.60
14873;DHT22;7528;48.576;19.122;2023-04-03T06:42:31;7.50;49.70
14873;DHT22;7528;48.576;19.122;2023-04-03T06:47:41;7.50;49.40
14873;DHT22;7528;48.576;19.122;2023-04-03T06:52:45;7.70;49.40
14873;DHT22;7528;48.576;19.122;2023-04-03T06:57:48;7.90;48.90
14873;DHT22;7528;48.576;19.122;2023-04-03T07:02:50;7.90;47.70
14873;DHT22;7528;48.576;19.122;2023-04-03T07:07:56;8.00;47.30
14873;DHT22;7528;48.576;19.122;2023-04-03T07:12:58;8.20;47.30
14873;DHT22;7528;48.576;19.122;2023-04-03T07:18:02;8.40;46.70
14873;DHT22;7528;48.576;19.122;2023-04-03T07:23:07;8.80;46.60
14873;DHT22;7528;48.576;19.122;2023-04-03T07:28:09;9.00;45.00
14873;DHT22;7528;48.576;19.122;2023-04-03T07:33:14;9.20;45.40
14873;DHT22;7528;48.576;19.122;2023-04-03T07:38:18;9.50;45.60
14873;DHT22;7528;48.576;19.122;2023-04-03T07:43:21;9.80;44.70
14873;DHT22;7528;48.576;19.122;2023-04-03T07:48:26;9.90;44.10
14873;DHT22;7528;48.576;19.122;2023-04-03T07:53:31;10.10;44.10
14873;DHT22;7528;48.576;19.122;2023-04-03T07:58:33;10.30;43.10
14873;DHT22;7528;48.576;19.122;2023-04-03T08:03:36;10.40;42.00
14873;DHT22;7528;48.576;19.122;2023-04-03T08:08:40;10.60;42.40
14873;DHT22;7528;48.576;19.122;2023-04-03T08:13:43;10.80;41.60
14873;DHT22;7528;48.576;19.122;2023-04-03T08:18:46;11.00;40.80
14873;DHT22;7528;48.576;19.122;2023-04-03T08:23:53;11.30;41.10
14873;DHT22;7528;48.576;19.122;2023-04-03T08:28:56;11.60;41.10
14873;DHT22;7528;48.576;19.122;2023-04-03T08:33:58;11.80;39.50
14873;DHT22;7528;48.576;19.122;2023-04-03T08:39:02;12.00;39.50
14873;DHT22;7528;48.576;19.122;2023-04-03T08:44:15;12.10;39.00
14873;DHT22;7528;48.576;19.122;2023-04-03T08:49:28;12.30;39.60
14873;DHT22;7528;48.576;19.122;2023-04-03T08:54:36;12.50;38.70
14873;DHT22;7528;48.576;19.122;2023-04-03T08:59:39;12.60;37.50
14873;DHT22;7528;48.576;19.122;2023-04-03T09:04:42;12.70;37.40
14873;DHT22;7528;48.576;19.122;2023-04-03T09:09:47;13.00;37.50
14873;DHT22;7528;48.576;19.122;2023-04-03T09:14:57;13.20;36.90
14873;DHT22;7528;48.576;19.122;2023-04-03T09:20:13;13.40;36.10
14873;DHT22;7528;48.576;19.122;2023-04-03T09:25:20;13.60;35.10
14873;DHT22;7528;48.576;19.122;2023-04-03T09:30:25;13.60;34.70
14873;DHT22;7528;48.576;19.122;2023-04-03T09:35:29;14.00;34.90
14873;DHT22;7528;48.576;19.122;2023-04-03T09:40:36;14.30;34.80
14873;DHT22;7528;48.576;19.122;2023-04-03T09:45:40;14.60;33.20
14873;DHT22;7528;48.576;19.122;2023-04-03T09:50:57;14.60;33.10
14873;DHT22;7528;48.576;19.122;2023-04-03T09:56:04;15.30;33.30
14873;DHT22;7528;48.576;19.122;2023-04-03T10:01:21;15.50;31.30
14873;DHT22;7528;48.576;19.122;2023-04-03T10:06:25;15.60;30.80
14873;DHT22;7528;48.576;19.122;2023-04-03T10:11:29;15.40;30.90
14873;DHT22;7528;48.576;19.122;2023-04-03T10:16:36;15.40;30.20
14873;DHT22;7528;48.576;19.122;2023-04-03T10:21:46;15.10;32.30
14873;DHT22;7528;48.576;19.122;2023-04-03T10:26:57;15.10;33.20
14873;DHT22;7528;48.576;19.122;2023-04-03T10:32:14;15.00;33.20
14873;DHT22;7528;48.576;19.122;2023-04-03T10:37:23;15.20;33.00
14873;DHT22;7528;48.576;19.122;2023-04-03T10:42:37;15.20;32.30
14873;DHT22;7528;48.576;19.122;2023-04-03T10:47:49;14.80;32.10
14873;DHT22;7528;48.576;19.122;2023-04-03T10:53:01;14.90;32.10
14873;DHT22;7528;48.576;19.122;2023-04-03T10:58:10;14.90;31.10
14873;DHT22;7528;48.576;19.122;2023-04-03T11:03:26;14.70;31.00
14873;DHT22;7528;48.576;19.122;2023-04-03T11:08:36;14.20;31.40
14873;DHT22;7528;48.576;19.122;2023-04-03T11:13:48;14.10;31.60
14873;DHT22;7528;48.576;19.122;2023-04-03T11:18:54;13.90;30.80
14873;DHT22;7528;48.576;19.122;2023-04-03T11:23:59;13.80;30.80
14873;DHT22;7528;48.576;19.122;2023-04-03T11:29:06;13.50;32.10
14873;DHT22;7528;48.576;19.122;2023-04-03T11:34:22;13.70;32.90
14873;DHT22;7528;48.576;19.122;2023-04-03T11:39:33;13.90;31.70
14873;DHT22;7528;48.576;19.122;2023-04-03T11:44:40;13.80;31.80
14873;DHT22;7528;48.576;19.122;2023-04-03T11:49:59;14.10;31.60
14873;DHT22;7528;48.576;19.122;2023-04-03T11:55:35;13.80;30.80
14873;DHT22;7528;48.576;19.122;2023-04-03T12:00:53;13.80;31.00
14873;DHT22;7528;48.576;19.122;2023-04-03T12:05:57;13.60;30.80
14873;DHT22;7528;48.576;19.122;2023-04-03T12:11:25;13.40;31.80
14873;DHT22;7528;48.576;19.122;2023-04-03T12:16:32;13.40;31.80
14873;DHT22;7528;48.576;19.122;2023-04-03T12:22:10;13.60;31.30
14873;DHT22;7528;48.576;19.122;2023-04-03T12:27:33;13.50;30.70
14873;DHT22;7528;48.576;19.122;2023-04-03T12:33:10;13.70;30.90
14873;DHT22;7528;48.576;19.122;2023-04-03T12:38:33;14.10;30.50
14873;DHT22;7528;48.576;19.122;2023-04-03T12:43:47;14.20;29.90
14873;DHT22;7528;48.576;19.122;2023-04-03T12:48:57;14.30;29.80
14873;DHT22;7528;48.576;19.122;2023-04-03T12:54:02;14.40;29.60
14873;DHT22;7528;48.576;19.122;2023-04-03T12:59:16;14.00;28.90
14873;DHT22;7528;48.576;19.122;2023-04-03T13:04:22;14.00;29.60
14873;DHT22;7528;48.576;19.122;2023-04-03T13:09:26;13.70;29.20
14873;DHT22;7528;48.576;19.122;2023-04-03T13:14:29;13.50;29.60
14873;DHT22;7528;48.576;19.122;2023-04-03T13:19:35;13.80;29.10
14873;DHT22;7528;48.576;19.122;2023-04-03T13:24:39;13.60;28.90
14873;DHT22;7528;48.576;19.122;2023-04-03T13:29:42;13.60;29.30
14873;DHT22;7528;48.576;19.122;2023-04-03T13:34:46;13.60;29.20
14873;DHT22;7528;48.576;19.122;2023-04-03T13:39:58;13.30;29.00
14873;DHT22;7528;48.576;19.122;2023-04-03T13:45:19;13.20;29.60
14873;DHT22;7528;48.576;19.122;2023-04-03T13:50:25;13.10;29.60
14873;DHT22;7528;48.576;19.122;2023-04-03T13:55:32;13.10;29.60
14873;DHT22;7528;48.576;19.122;2023-04-03T14:00:37;12.90;29.70
14873;DHT22;7528;48.576;19.122;2023-04-03T14:05:42;13.00;30.00
14873;DHT22;7528;48.576;19.122;2023-04-03T14:10:46;13.00;30.80
14873;DHT22;7528;48.576;19.122;2023-04-03T14:15:50;12.80;30.30
14873;DHT22;7528;48.576;19.122;2023-04-03T14:20:54;12.80;30.80
14873;DHT22;7528;48.576;19.122;2023-04-03T14:25:56;12.70;31.80
14873;DHT22;7528;48.576;19.122;2023-04-03T14:31:01;12.40;31.60
14873;DHT22;7528;48.576;19.122;2023-04-03T14:36:12;12.40;32.20
14873;DHT22;7528;48.576;19.122;2023-04-03T14:41:16;12.40;32.10
14873;DHT22;7528;48.576;19.122;2023-04-03T14:46:22;12.20;32.30
14873;DHT22;7528;48.576;19.122;2023-04-03T14:51:27;11.90;32.90
14873;DHT22;7528;48.576;19.122;2023-04-03T14:56:29;11.90;33.20
14873;DHT22;7528;48.576;19.122;2023-04-03T15:01:32;11.90;33.60
14873;DHT22;7528;48.576;19.122;2023-04-03T15:06:36;11.70;33.60
14873;DHT22;7528;48.576;19.122;2023-04-03T15:11:38;11.70;33.50
14873;DHT22;7528;48.576;19.122;2023-04-03T15:16:41;11.20;33.40
14873;DHT22;7528;48.576;19.122;2023-04-03T15:21:45;11.20;33.80
14873;DHT22;7528;48.576;19.122;2023-04-03T15:26:48;11.20;34.10
14873;DHT22;7528;48.576;19.122;2023-04-03T15:31:50;11.20;33.90
14873;DHT22;7528;48.576;19.122;2023-04-03T15:36:55;10.90;33.40
14873;DHT22;7528;48.576;19.122;2023-04-03T15:41:59;10.80;33.80
14873;DHT22;7528;48.576;19.122;2023-04-03T15:47:07;10.60;34.00
14873;DHT22;7528;48.576;19.122;2023-04-03T15:52:11;10.40;34.60
14873;DHT22;7528;48.576;19.122;2023-04-03T15:57:13;10.20;35.30
14873;DHT22;7528;48.576;19.122;2023-04-03T16:02:16;9.90;34.80
14873;DHT22;7528;48.576;19.122;2023-04-03T16:07:20;9.90;35.80
14873;DHT22;7528;48.576;19.122;2023-04-03T16:12:22;10.10;35.30
14873;DHT22;7528;48.576;19.122;2023-04-03T16:17:26;10.00;35.00
14873;DHT22;7528;48.576;19.122;2023-04-03T16:22:31;9.90;35.40
14873;DHT22;7528;48.576;19.122;2023-04-03T16:27:33;9.90;35.90
14873;DHT22;7528;48.576;19.122;2023-04-03T16:32:37;9.90;35.20
14873;DHT22;7528;48.576;19.122;2023-04-03T16:37:42;9.80;35.00
14873;DHT22;7528;48.576;19.122;2023-04-03T16:42:44;9.70;35.40
14873;DHT22;7528;48.576;19.122;2023-04-03T16:47:46;9.50;35.20
14873;DHT22;7528;48.576;19.122;2023-04-03T16:52:51;9.30;35.90
14873;DHT22;7528;48.576;19.122;2023-04-03T19:48:43;4.50;41.00
14873;DHT22;7528;48.576;19.122;2023-04-03T19:53:47;5.00;41.00
14873;DHT22;7528;48.576;19.122;2023-04-03T19:58:49;5.80;39.30
14873;DHT22;7528;48.576;19.122;2023-04-03T20:03:55;6.20;38.60
14873;DHT22;7528;48.576;19.122;2023-04-03T20:08:57;6.40;38.20
14873;DHT22;7528;48.576;19.122;2023-04-03T20:14:00;6.50;38.00
14873;DHT22;7528;48.576;19.122;2023-04-03T20:19:05;6.60;38.10
14873;DHT22;7528;48.576;19.122;2023-04-03T20:24:08;6.70;38.20
14873;DHT22;7528;48.576;19.122;2023-04-03T20:29:12;6.70;38.30
14873;DHT22;7528;48.576;19.122;2023-04-03T20:34:18;6.80;39.50
14873;DHT22;7528;48.576;19.122;2023-04-03T20:39:21;6.70;39.40
14873;DHT22;7528;48.576;19.122;2023-04-03T20:44:24;6.70;39.60
14873;DHT22;7528;48.576;19.122;2023-04-03T20:49:28;6.60;40.20
14873;DHT22;7528;48.576;19.122;2023-04-03T20:54:31;6.60;40.00
14873;DHT22;7528;48.576;19.122;2023-04-03T20:59:33;6.50;40.40
14873;DHT22;7528;48.576;19.122;2023-04-03T21:04:42;6.60;40.30
14873;DHT22;7528;48.576;19.122;2023-04-03T21:20:51;6.60;40.80
14873;DHT22;7528;48.576;19.122;2023-04-03T21:25:54;6.50;41.00
14873;DHT22;7528;48.576;19.122;2023-04-03T21:30:57;6.40;41.20
14873;DHT22;7528;48.576;19.122;2023-04-03T21:36:00;6.30;41.80
14873;DHT22;7528;48.576;19.122;2023-04-03T21:41:04;6.10;41.30
14873;DHT22;7528;48.576;19.122;2023-04-03T21:46:06;6.00;41.20
14873;DHT22;7528;48.576;19.122;2023-04-03T21:51:10;6.00;42.40
14873;DHT22;7528;48.576;19.122;2023-04-03T21:56:12;5.90;41.50
14873;DHT22;7528;48.576;19.122;2023-04-03T22:01:15;5.90;42.00
14873;DHT22;7528;48.576;19.122;2023-04-03T22:06:19;5.70;41.60
14873;DHT22;7528;48.576;19.122;2023-04-03T22:11:22;5.70;41.20
14873;DHT22;7528;48.576;19.122;2023-04-03T22:16:27;5.60;39.90
14873;DHT22;7528;48.576;19.122;2023-04-03T22:21:31;5.60;41.50
14873;DHT22;7528;48.576;19.122;2023-04-03T22:26:34;5.50;41.00
14873;DHT22;7528;48.576;19.122;2023-04-03T22:31:37;5.50;41.60
14873;DHT22;7528;48.576;19.122;2023-04-03T22:36:42;5.50;41.50
14873;DHT22;7528;48.576;19.122;2023-04-03T22:41:45;5.40;40.80
14873;DHT22;7528;48.576;19.122;2023-04-03T22:46:48;5.40;42.20
14873;DHT22;7528;48.576;19.122;2023-04-03T22:51:53;5.40;44.10
14873;DHT22;7528;48.576;19.122;2023-04-03T22:56:55;5.40;44.10
14873;DHT22;7528;48.576;19.122;2023-04-03T23:01:58;5.40;44.70
14873;DHT22;7528;48.576;19.122;2023-04-03T23:07:02;5.30;44.50
14873;DHT22;7528;48.576;19.122;2023-04-03T23:12:05;5.30;44.80
14873;DHT22;7528;48.576;19.122;2023-04-03T23:17:09;5.20;45.20
14873;DHT22;7528;48.576;19.122;2023-04-03T23:22:13;5.20;45.10
14873;DHT22;7528;48.576;19.122;2023-04-03T23:27:16;5.10;45.10
14873;DHT22;7528;48.576;19.122;2023-04-03T23:32:18;5.10;45.40
14873;DHT22;7528;48.576;19.122;2023-04-03T23:37:22;5.00;44.80
14873;DHT22;7528;48.576;19.122;2023-04-03T23:42:25;4.90;45.50
14873;DHT22;7528;48.576;19.122;2023-04-03T23:47:28;4.80;45.20
14873;DHT22;7528;48.576;19.122;2023-04-03T23:52:31;4.70;45.40
14873;DHT22;7528;48.576;19.122;2023-04-03T23:57:35;4.60;46.30
